createdAt,value
2017-07-26T00:00:32.802Z,0
2017-07-26T00:01:32.836Z,0
2017-07-26T00:02:32.860Z,0
2017-07-26T00:03:32.894Z,0
2017-07-26T00:04:47.522Z,0
2017-07-26T00:05:32.932Z,0
2017-07-26T00:08:32.998Z,0
2017-07-26T00:09:47.648Z,0
2017-07-26T00:10:33.054Z,0
2017-07-26T00:11:33.129Z,0
2017-07-26T00:12:33.105Z,0
2017-07-26T00:13:33.141Z,0
2017-07-26T00:14:33.157Z,0
2017-07-26T00:15:33.169Z,0
2017-07-26T00:16:32.583Z,0
2017-07-26T00:17:47.824Z,0
2017-07-26T00:18:33.246Z,0
2017-07-26T00:19:32.975Z,0
2017-07-26T00:21:33.331Z,0
2017-07-26T00:22:33.343Z,0
2017-07-26T00:23:33.384Z,0
2017-07-26T00:24:33.394Z,0
2017-07-26T00:25:33.424Z,0
2017-07-26T00:26:33.429Z,0
2017-07-26T00:27:33.494Z,0
2017-07-26T00:28:33.509Z,0
2017-07-26T00:29:33.509Z,0
2017-07-26T00:30:33.523Z,0
2017-07-26T00:31:33.554Z,0
2017-07-26T00:32:33.585Z,0
2017-07-26T00:33:48.204Z,0
2017-07-26T00:34:33.646Z,0
2017-07-26T00:35:33.644Z,0
2017-07-26T00:36:33.381Z,0
2017-07-26T00:38:33.724Z,0
2017-07-26T00:39:33.756Z,0
2017-07-26T00:40:33.785Z,0
2017-07-26T00:41:33.799Z,0
2017-07-26T00:42:33.835Z,0
2017-07-26T00:43:33.852Z,0
2017-07-26T00:44:48.487Z,0
2017-07-26T00:45:48.514Z,0
2017-07-26T00:46:33.926Z,0
2017-07-26T00:47:33.941Z,0
2017-07-26T00:48:34.028Z,0
2017-07-26T00:49:48.604Z,0
2017-07-26T00:50:34.022Z,0
2017-07-26T00:51:33.746Z,0
2017-07-26T00:52:34.067Z,0
2017-07-26T00:53:34.109Z,0
2017-07-26T00:54:34.127Z,0
2017-07-26T00:56:34.172Z,0
2017-07-26T00:57:48.785Z,0
2017-07-26T00:58:34.200Z,0
2017-07-26T00:59:34.256Z,0
2017-07-26T01:00:48.876Z,0
2017-07-26T01:01:34.303Z,0
2017-07-26T01:02:34.302Z,0
2017-07-26T01:03:34.339Z,0
2017-07-26T01:05:48.963Z,0
2017-07-26T01:06:34.418Z,0
2017-07-26T01:07:49.022Z,0
2017-07-26T01:08:33.835Z,0
2017-07-26T01:09:34.482Z,0
2017-07-26T01:10:34.508Z,0
2017-07-26T01:11:48.826Z,0
2017-07-26T01:12:34.568Z,0
2017-07-26T01:13:34.558Z,0
2017-07-26T01:14:49.200Z,0
2017-07-26T01:15:34.323Z,0
2017-07-26T01:16:34.642Z,0
2017-07-26T01:17:34.637Z,0
2017-07-26T01:18:34.397Z,0
2017-07-26T01:19:34.720Z,0
2017-07-26T01:20:49.369Z,0
2017-07-26T01:21:34.760Z,0
2017-07-26T01:22:49.372Z,0
2017-07-26T01:23:34.821Z,0
2017-07-26T01:24:34.816Z,0
2017-07-26T01:25:34.877Z,0
2017-07-26T01:27:34.603Z,0
2017-07-26T01:28:34.926Z,0
2017-07-26T01:29:34.632Z,0
2017-07-26T01:30:34.985Z,0
2017-07-26T01:31:34.713Z,0
2017-07-26T01:32:34.724Z,0
2017-07-26T01:33:49.644Z,0
2017-07-26T01:34:34.760Z,0
2017-07-26T01:35:34.784Z,0
2017-07-26T01:37:49.739Z,0
2017-07-26T01:39:34.869Z,0
2017-07-26T01:40:34.914Z,0
2017-07-26T01:41:34.610Z,0
2017-07-26T01:42:49.869Z,0
2017-07-26T01:43:35.295Z,0
2017-07-26T01:44:35.013Z,0
2017-07-26T01:45:35.030Z,0
2017-07-26T01:46:35.051Z,0
2017-07-26T01:47:35.096Z,0
2017-07-26T01:48:35.111Z,0
2017-07-26T01:49:35.133Z,0
2017-07-26T01:51:35.170Z,0
2017-07-26T01:52:50.101Z,0
2017-07-26T01:53:34.914Z,0
2017-07-26T01:54:35.561Z,0
2017-07-26T01:55:50.173Z,0
2017-07-26T01:56:35.628Z,0
2017-07-26T01:57:35.315Z,0
2017-07-26T01:58:35.356Z,0
2017-07-26T01:59:49.646Z,0
2017-07-26T02:00:35.711Z,0
2017-07-26T02:01:35.416Z,0
2017-07-26T02:02:35.767Z,0
2017-07-26T02:03:50.062Z,0
2017-07-26T02:04:35.814Z,0
2017-07-26T02:05:35.830Z,0
2017-07-26T02:06:50.455Z,0
2017-07-26T02:07:35.868Z,0
2017-07-26T02:08:50.498Z,0
2017-07-26T02:09:35.909Z,0
2017-07-26T02:10:35.617Z,0
2017-07-26T02:11:35.983Z,0
2017-07-26T02:13:36.032Z,0
2017-07-26T02:14:36.010Z,0
2017-07-26T02:15:36.075Z,0
2017-07-26T02:16:50.663Z,0
2017-07-26T02:17:50.756Z,0
2017-07-26T02:18:36.141Z,0
2017-07-26T02:19:35.544Z,0
2017-07-26T02:20:35.570Z,0
2017-07-26T02:21:36.206Z,0
2017-07-26T02:22:36.227Z,0
2017-07-26T02:23:36.234Z,0
2017-07-26T02:24:50.888Z,0
2017-07-26T02:26:50.933Z,0
2017-07-26T02:28:50.972Z,0
2017-07-26T02:29:36.404Z,0
2017-07-26T02:30:36.421Z,0
2017-07-26T02:31:36.458Z,0
2017-07-26T02:32:51.054Z,0
2017-07-26T02:33:36.511Z,0
2017-07-26T02:35:36.586Z,0
2017-07-26T02:36:36.566Z,0
2017-07-26T02:37:36.605Z,0
2017-07-26T02:38:36.618Z,0
2017-07-26T02:39:36.323Z,0
2017-07-26T02:40:51.262Z,0
2017-07-26T02:41:36.677Z,0
2017-07-26T02:42:51.329Z,0
2017-07-26T02:43:36.711Z,0
2017-07-26T02:44:36.770Z,0
2017-07-26T02:46:51.396Z,0
2017-07-26T02:47:36.814Z,0
2017-07-26T02:48:36.845Z,0
2017-07-26T02:50:36.888Z,0
2017-07-26T02:51:36.989Z,0
2017-07-26T02:52:36.961Z,0
2017-07-26T02:53:36.984Z,0
2017-07-26T02:54:36.979Z,0
2017-07-26T02:56:51.649Z,0
2017-07-26T02:57:51.650Z,0
2017-07-26T02:58:37.097Z,0
2017-07-26T02:59:37.099Z,0
2017-07-26T03:00:37.117Z,0
2017-07-26T03:01:37.153Z,0
2017-07-26T03:02:37.195Z,0
2017-07-26T03:03:37.209Z,0
2017-07-26T03:04:37.230Z,0
2017-07-26T03:05:37.229Z,0
2017-07-26T03:07:06.496Z,0
2017-07-26T03:07:51.909Z,0
2017-07-26T03:08:37.337Z,0
2017-07-26T03:09:37.354Z,0
2017-07-26T03:10:37.362Z,0
2017-07-26T03:11:37.396Z,0
2017-07-26T03:12:37.420Z,0
2017-07-26T03:13:37.458Z,0
2017-07-26T03:14:37.455Z,0
2017-07-26T03:15:52.096Z,0
2017-07-26T03:16:37.536Z,0
2017-07-26T03:17:37.287Z,0
2017-07-26T03:18:37.233Z,0
2017-07-26T03:19:37.585Z,0
2017-07-26T03:21:52.234Z,0
2017-07-26T03:22:52.284Z,0
2017-07-26T03:23:37.689Z,0
2017-07-26T03:24:37.719Z,0
2017-07-26T03:25:52.027Z,0
2017-07-26T03:26:37.466Z,0
2017-07-26T03:27:52.373Z,0
2017-07-26T03:28:37.506Z,0
2017-07-26T03:29:37.207Z,0
2017-07-26T03:30:37.862Z,0
2017-07-26T03:31:37.546Z,0
2017-07-26T03:32:52.509Z,0
2017-07-26T03:33:52.536Z,0
2017-07-26T03:34:52.550Z,0
2017-07-26T03:35:37.684Z,0
2017-07-26T03:36:37.990Z,0
2017-07-26T03:37:52.618Z,0
2017-07-26T03:38:38.052Z,0
2017-07-26T03:39:38.067Z,0
2017-07-26T03:40:38.103Z,0
2017-07-26T03:41:37.493Z,0
2017-07-26T03:42:38.131Z,0
2017-07-26T03:44:07.354Z,0
2017-07-26T03:44:38.195Z,0
2017-07-26T03:45:38.210Z,0
2017-07-26T03:46:38.253Z,0
2017-07-26T03:47:38.282Z,0
2017-07-26T03:48:38.276Z,0
2017-07-26T03:49:38.361Z,0
2017-07-26T03:50:38.330Z,0
2017-07-26T03:51:38.356Z,0
2017-07-26T03:52:38.379Z,0
2017-07-26T03:53:38.394Z,0
2017-07-26T03:54:38.450Z,0
2017-07-26T03:55:38.453Z,0
2017-07-26T03:56:38.499Z,0
2017-07-26T03:57:38.477Z,0
2017-07-26T03:58:53.128Z,0
2017-07-26T03:59:53.134Z,0
2017-07-26T04:01:38.613Z,0
2017-07-26T04:02:53.204Z,0
2017-07-26T04:03:53.256Z,0
2017-07-26T04:04:53.273Z,0
2017-07-26T04:05:53.258Z,0
2017-07-26T04:06:38.724Z,0
2017-07-26T04:07:38.431Z,0
2017-07-26T04:08:38.459Z,0
2017-07-26T04:09:38.761Z,0
2017-07-26T04:10:53.423Z,5
2017-07-26T04:11:38.836Z,5
2017-07-26T04:12:38.865Z,5
2017-07-26T04:13:38.901Z,5
2017-07-26T04:14:53.517Z,5
2017-07-26T04:16:38.938Z,5
2017-07-26T04:17:53.585Z,5
2017-07-26T04:18:38.687Z,5
2017-07-26T04:20:38.731Z,5
2017-07-26T04:21:39.080Z,5
2017-07-26T04:22:39.122Z,10
2017-07-26T04:23:53.741Z,10
2017-07-26T04:24:39.157Z,10
2017-07-26T04:25:39.179Z,10
2017-07-26T04:26:39.201Z,10
2017-07-26T04:27:39.229Z,10
2017-07-26T04:28:39.299Z,10
2017-07-26T04:29:53.241Z,10
2017-07-26T04:30:53.908Z,10
2017-07-26T04:31:53.923Z,10
2017-07-26T04:32:39.029Z,5
2017-07-26T04:33:39.352Z,5
2017-07-26T04:34:53.688Z,5
2017-07-26T04:35:54.001Z,5
2017-07-26T04:36:39.449Z,5
2017-07-26T04:37:39.140Z,5
2017-07-26T04:38:39.507Z,5
2017-07-26T04:39:39.515Z,5
2017-07-26T04:40:39.540Z,5
2017-07-26T04:41:39.546Z,5
2017-07-26T04:42:39.565Z,5
2017-07-26T04:43:54.196Z,5
2017-07-26T04:46:39.377Z,5
2017-07-26T04:47:39.687Z,5
2017-07-26T04:48:54.328Z,5
2017-07-26T04:49:39.760Z,5
2017-07-26T04:50:39.763Z,5
2017-07-26T04:51:39.821Z,5
2017-07-26T04:52:39.797Z,5
2017-07-26T04:53:39.888Z,5
2017-07-26T04:54:39.852Z,5
2017-07-26T04:55:39.596Z,5
2017-07-26T04:56:39.924Z,5
2017-07-26T04:57:39.945Z,5
2017-07-26T04:58:39.951Z,5
2017-07-26T04:59:39.996Z,5
2017-07-26T05:00:39.705Z,5
2017-07-26T05:01:40.066Z,5
2017-07-26T05:02:54.666Z,5
2017-07-26T05:03:40.072Z,5
2017-07-26T05:04:39.809Z,5
2017-07-26T05:05:40.114Z,5
2017-07-26T05:06:39.855Z,5
2017-07-26T05:07:40.178Z,5
2017-07-26T05:08:40.231Z,5
2017-07-26T05:09:40.244Z,5
2017-07-26T05:10:40.269Z,5
2017-07-26T05:11:54.871Z,5
2017-07-26T05:12:40.297Z,5
2017-07-26T05:13:40.331Z,10
2017-07-26T05:14:40.354Z,10
2017-07-26T05:15:54.965Z,10
2017-07-26T05:16:54.991Z,10
2017-07-26T05:17:40.411Z,10
2017-07-26T05:18:55.056Z,15
2017-07-26T05:19:55.079Z,15
2017-07-26T05:20:40.488Z,15
2017-07-26T05:21:40.216Z,20
2017-07-26T05:23:55.197Z,20
2017-07-26T05:24:55.202Z,25
2017-07-26T05:25:40.628Z,25
2017-07-26T05:26:40.652Z,25
2017-07-26T05:27:55.246Z,25
2017-07-26T05:28:40.704Z,25
2017-07-26T05:29:55.348Z,25
2017-07-26T05:30:40.749Z,25
2017-07-26T05:31:40.763Z,25
2017-07-26T05:32:40.786Z,20
2017-07-26T05:33:40.821Z,20
2017-07-26T05:34:55.414Z,20
2017-07-26T05:35:40.926Z,20
2017-07-26T05:36:55.453Z,20
2017-07-26T05:37:40.919Z,20
2017-07-26T05:38:40.948Z,20
2017-07-26T05:39:40.969Z,20
2017-07-26T05:40:40.970Z,20
2017-07-26T05:41:40.988Z,20
2017-07-26T05:42:41.015Z,25
2017-07-26T05:43:41.061Z,25
2017-07-26T05:44:41.059Z,25
2017-07-26T05:45:41.074Z,25
2017-07-26T05:46:41.182Z,25
2017-07-26T05:47:41.160Z,25
2017-07-26T05:49:40.887Z,25
2017-07-26T05:50:55.816Z,25
2017-07-26T05:51:40.925Z,20
2017-07-26T05:52:55.845Z,20
2017-07-26T05:53:41.277Z,20
2017-07-26T05:54:41.314Z,25
2017-07-26T05:55:41.323Z,25
2017-07-26T05:56:41.363Z,25
2017-07-26T05:57:41.363Z,25
2017-07-26T05:58:41.401Z,20
2017-07-26T06:00:10.316Z,20
2017-07-26T06:00:41.433Z,20
2017-07-26T06:01:41.226Z,20
2017-07-26T06:02:41.521Z,15
2017-07-26T06:03:41.525Z,15
2017-07-26T06:04:41.523Z,15
2017-07-26T06:05:56.179Z,15
2017-07-26T06:06:56.199Z,20
2017-07-26T06:07:41.287Z,20
2017-07-26T06:08:41.643Z,20
2017-07-26T06:09:41.678Z,20
2017-07-26T06:10:41.722Z,20
2017-07-26T06:11:42.755Z,20
2017-07-26T06:12:41.738Z,25
2017-07-26T06:13:56.378Z,25
2017-07-26T06:14:41.786Z,30
2017-07-26T06:15:56.419Z,25
2017-07-26T06:16:56.424Z,25
2017-07-26T06:17:41.524Z,25
2017-07-26T06:18:41.888Z,25
2017-07-26T06:19:41.911Z,25
2017-07-26T06:20:41.628Z,30
2017-07-26T06:21:41.957Z,30
2017-07-26T06:22:42.029Z,30
2017-07-26T06:23:56.579Z,30
2017-07-26T06:24:41.725Z,30
2017-07-26T06:25:41.763Z,30
2017-07-26T06:26:41.762Z,30
2017-07-26T06:27:42.098Z,30
2017-07-26T06:28:42.127Z,25
2017-07-26T06:29:42.146Z,25
2017-07-26T06:31:41.871Z,35
2017-07-26T06:32:42.221Z,45
2017-07-26T06:33:41.920Z,45
2017-07-26T06:34:56.551Z,45
2017-07-26T06:35:41.991Z,45
2017-07-26T06:36:42.324Z,40
2017-07-26T06:37:56.925Z,45
2017-07-26T06:38:42.365Z,45
2017-07-26T06:39:42.084Z,40
2017-07-26T06:40:42.118Z,40
2017-07-26T06:41:42.126Z,40
2017-07-26T06:42:42.151Z,40
2017-07-26T06:43:42.166Z,35
2017-07-26T06:44:42.192Z,40
2017-07-26T06:45:42.516Z,40
2017-07-26T06:46:42.243Z,40
2017-07-26T06:47:42.577Z,45
2017-07-26T06:48:42.608Z,45
2017-07-26T06:49:42.612Z,50
2017-07-26T06:50:42.343Z,55
2017-07-26T06:51:42.367Z,60
2017-07-26T06:52:42.402Z,60
2017-07-26T06:54:11.604Z,60
2017-07-26T06:54:42.749Z,60
2017-07-26T06:56:57.375Z,60
2017-07-26T06:57:42.805Z,60
2017-07-26T06:58:42.545Z,55
2017-07-26T06:59:42.868Z,55
2017-07-26T07:00:42.891Z,50
2017-07-26T07:01:57.188Z,50
2017-07-26T07:02:42.935Z,50
2017-07-26T07:03:42.957Z,55
2017-07-26T07:04:42.985Z,50
2017-07-26T07:05:57.303Z,50
2017-07-26T07:06:42.398Z,55
2017-07-26T07:07:43.057Z,55
2017-07-26T07:08:43.077Z,55
2017-07-26T07:09:57.707Z,50
2017-07-26T07:10:43.130Z,50
2017-07-26T07:11:57.745Z,45
2017-07-26T07:12:43.243Z,40
2017-07-26T07:13:43.195Z,45
2017-07-26T07:14:57.825Z,50
2017-07-26T07:15:43.257Z,45
2017-07-26T07:16:42.956Z,50
2017-07-26T07:17:43.309Z,50
2017-07-26T07:18:43.310Z,55
2017-07-26T07:19:43.355Z,55
2017-07-26T07:20:43.356Z,55
2017-07-26T07:21:43.398Z,55
2017-07-26T07:22:43.096Z,50
2017-07-26T07:23:43.142Z,50
2017-07-26T07:24:43.173Z,45
2017-07-26T07:25:58.089Z,50
2017-07-26T07:26:43.171Z,45
2017-07-26T07:27:43.221Z,45
2017-07-26T07:29:58.185Z,45
2017-07-26T07:30:43.604Z,45
2017-07-26T07:31:43.322Z,40
2017-07-26T07:32:43.649Z,35
2017-07-26T07:33:58.288Z,30
2017-07-26T07:34:43.754Z,35
2017-07-26T07:35:43.394Z,35
2017-07-26T07:36:58.341Z,35
2017-07-26T07:37:43.762Z,40
2017-07-26T07:38:43.800Z,40
2017-07-26T07:39:58.414Z,45
2017-07-26T07:41:12.731Z,55
2017-07-26T07:41:58.489Z,55
2017-07-26T07:42:43.890Z,55
2017-07-26T07:43:43.611Z,55
2017-07-26T07:44:43.621Z,65
2017-07-26T07:45:43.975Z,65
2017-07-26T07:46:43.666Z,60
2017-07-26T07:47:44.047Z,55
2017-07-26T07:48:44.061Z,55
2017-07-26T07:49:44.062Z,55
2017-07-26T07:51:43.461Z,65
2017-07-26T07:53:43.834Z,75
2017-07-26T07:54:44.263Z,75
2017-07-26T07:55:43.892Z,70
2017-07-26T07:56:58.827Z,65
2017-07-26T07:57:44.253Z,60
2017-07-26T07:58:44.270Z,60
2017-07-26T07:59:44.311Z,55
2017-07-26T08:00:44.331Z,55
2017-07-26T08:01:44.027Z,60
2017-07-26T08:02:58.982Z,60
2017-07-26T08:03:44.078Z,60
2017-07-26T08:04:59.057Z,60
2017-07-26T08:05:58.742Z,60
2017-07-26T08:06:44.170Z,55
2017-07-26T08:07:59.092Z,55
2017-07-26T08:08:44.524Z,55
2017-07-26T08:09:44.301Z,55
2017-07-26T08:10:44.569Z,55
2017-07-26T08:11:44.293Z,55
2017-07-26T08:12:59.235Z,55
2017-07-26T08:13:44.645Z,55
2017-07-26T08:14:44.698Z,60
2017-07-26T08:15:59.291Z,55
2017-07-26T08:16:44.696Z,55
2017-07-26T08:17:44.733Z,55
2017-07-26T08:18:44.759Z,55
2017-07-26T08:19:44.492Z,50
2017-07-26T08:20:44.504Z,55
2017-07-26T08:21:44.528Z,55
2017-07-26T08:22:44.539Z,55
2017-07-26T08:23:44.574Z,55
2017-07-26T08:24:59.195Z,60
2017-07-26T08:25:44.941Z,55
2017-07-26T08:26:44.625Z,55
2017-07-26T08:27:45.192Z,55
2017-07-26T08:28:59.289Z,55
2017-07-26T08:29:45.031Z,65
2017-07-26T08:30:59.628Z,65
2017-07-26T08:31:59.372Z,65
2017-07-26T08:32:44.809Z,70
2017-07-26T08:33:44.807Z,70
2017-07-26T08:34:59.763Z,70
2017-07-26T08:35:45.166Z,70
2017-07-26T08:36:45.189Z,65
2017-07-26T08:37:59.813Z,75
2017-07-26T08:38:44.941Z,70
2017-07-26T08:39:44.963Z,65
2017-07-26T08:40:45.326Z,60
2017-07-26T08:41:45.313Z,65
2017-07-26T08:42:45.321Z,70
2017-07-26T08:43:45.363Z,65
2017-07-26T08:45:14.578Z,70
2017-07-26T08:45:45.426Z,65
2017-07-26T08:46:45.433Z,75
2017-07-26T08:47:45.467Z,75
2017-07-26T08:48:45.158Z,80
2017-07-26T08:49:45.514Z,95
2017-07-26T08:50:45.228Z,85
2017-07-26T08:51:45.298Z,85
2017-07-26T08:52:45.578Z,85
2017-07-26T08:53:45.301Z,75
2017-07-26T08:54:45.646Z,70
2017-07-26T08:55:59.952Z,70
2017-07-26T08:56:45.370Z,70
2017-07-26T08:59:00.301Z,65
2017-07-26T08:59:45.441Z,65
2017-07-26T09:01:14.976Z,70
2017-07-26T09:01:45.781Z,70
2017-07-26T09:02:45.533Z,75
2017-07-26T09:03:45.546Z,75
2017-07-26T09:04:45.867Z,70
2017-07-26T09:05:45.876Z,65
2017-07-26T09:06:45.922Z,60
2017-07-26T09:08:00.242Z,65
2017-07-26T09:09:00.570Z,70
2017-07-26T09:09:45.698Z,75
2017-07-26T09:10:59.987Z,80
2017-07-26T09:11:45.734Z,90
2017-07-26T09:12:45.745Z,90
2017-07-26T09:14:45.808Z,100
2017-07-26T09:16:15.334Z,90
2017-07-26T09:16:59.838Z,85
2017-07-26T09:17:45.575Z,100
2017-07-26T09:18:46.217Z,105
2017-07-26T09:20:45.962Z,115
2017-07-26T09:21:46.268Z,115
2017-07-26T09:22:46.016Z,115
2017-07-26T09:23:46.332Z,120
2017-07-26T09:26:00.976Z,95
2017-07-26T09:26:46.098Z,90
2017-07-26T09:27:45.816Z,80
2017-07-26T09:28:45.835Z,80
2017-07-26T09:29:46.470Z,75
2017-07-26T09:30:46.508Z,80
2017-07-26T09:32:01.142Z,70
2017-07-26T09:32:46.230Z,70
2017-07-26T09:33:46.583Z,70
2017-07-26T09:34:46.284Z,70
2017-07-26T09:35:46.639Z,75
2017-07-26T09:36:46.360Z,70
2017-07-26T09:37:46.056Z,70
2017-07-26T09:38:46.699Z,75
2017-07-26T09:39:46.723Z,75
2017-07-26T09:40:46.768Z,80
2017-07-26T09:41:46.764Z,80
2017-07-26T09:42:46.171Z,75
2017-07-26T09:43:46.799Z,70
2017-07-26T09:45:01.456Z,75
2017-07-26T09:45:46.883Z,75
2017-07-26T09:48:01.508Z,60
2017-07-26T09:48:46.953Z,60
2017-07-26T09:49:46.973Z,60
2017-07-26T09:50:47.007Z,75
2017-07-26T09:51:47.011Z,80
2017-07-26T09:52:46.731Z,95
2017-07-26T09:53:46.768Z,110
2017-07-26T09:54:46.816Z,115
2017-07-26T09:56:01.708Z,120
2017-07-26T09:57:01.751Z,120
2017-07-26T09:57:47.175Z,110
2017-07-26T09:58:47.183Z,110
2017-07-26T09:59:47.253Z,110
2017-07-26T10:01:47.280Z,95
2017-07-26T10:02:47.270Z,90
2017-07-26T10:04:47.406Z,80
2017-07-26T10:05:47.351Z,80
2017-07-26T10:06:47.383Z,75
2017-07-26T10:07:47.406Z,75
2017-07-26T10:08:47.444Z,70
2017-07-26T10:09:47.460Z,70
2017-07-26T10:10:47.540Z,65
2017-07-26T10:11:47.490Z,65
2017-07-26T10:12:47.545Z,70
2017-07-26T10:13:47.538Z,70
2017-07-26T10:14:47.560Z,65
2017-07-26T10:15:47.608Z,65
2017-07-26T10:16:47.604Z,70
2017-07-26T10:17:47.637Z,70
2017-07-26T10:18:47.369Z,70
2017-07-26T10:20:02.308Z,75
2017-07-26T10:21:02.033Z,70
2017-07-26T10:22:02.037Z,70
2017-07-26T10:22:47.777Z,65
2017-07-26T10:23:47.770Z,65
2017-07-26T10:24:47.829Z,65
2017-07-26T10:25:47.854Z,65
2017-07-26T10:26:47.886Z,75
2017-07-26T10:27:47.612Z,70
2017-07-26T10:29:47.937Z,95
2017-07-26T10:30:48.005Z,100
2017-07-26T10:32:02.594Z,90
2017-07-26T10:32:48.006Z,90
2017-07-26T10:33:48.043Z,90
2017-07-26T10:34:47.773Z,90
2017-07-26T10:36:17.279Z,85
2017-07-26T10:36:48.113Z,85
2017-07-26T10:38:02.719Z,80
2017-07-26T10:38:48.169Z,80
2017-07-26T10:39:48.165Z,85
2017-07-26T10:40:48.227Z,80
2017-07-26T10:41:48.252Z,90
2017-07-26T10:42:48.273Z,85
2017-07-26T10:44:02.885Z,90
2017-07-26T10:44:48.328Z,80
2017-07-26T10:45:48.335Z,80
2017-07-26T10:46:48.356Z,80
2017-07-26T10:47:48.361Z,75
2017-07-26T10:48:47.802Z,80
2017-07-26T10:49:48.418Z,80
2017-07-26T10:51:03.071Z,85
2017-07-26T10:51:48.482Z,90
2017-07-26T10:52:48.210Z,95
2017-07-26T10:57:17.496Z,80
2017-07-26T10:57:48.639Z,80
2017-07-26T10:58:48.358Z,75
2017-07-26T11:00:48.400Z,75
2017-07-26T11:01:48.713Z,75
2017-07-26T11:03:03.345Z,90
2017-07-26T11:03:48.770Z,95
2017-07-26T11:05:03.410Z,85
2017-07-26T11:05:48.535Z,90
2017-07-26T11:06:48.845Z,90
2017-07-26T11:07:48.867Z,90
2017-07-26T11:08:48.900Z,100
2017-07-26T11:09:48.904Z,100
2017-07-26T11:10:48.949Z,95
2017-07-26T11:11:48.964Z,100
2017-07-26T11:12:49.001Z,110
2017-07-26T11:13:49.009Z,95
2017-07-26T11:14:49.056Z,85
2017-07-26T11:15:48.769Z,95
2017-07-26T11:16:49.088Z,90
2017-07-26T11:17:48.796Z,70
2017-07-26T11:20:17.750Z,75
2017-07-26T11:20:49.179Z,80
2017-07-26T11:21:49.224Z,75
2017-07-26T11:23:03.844Z,90
2017-07-26T11:23:49.254Z,90
2017-07-26T11:24:49.299Z,90
2017-07-26T11:26:03.901Z,95
2017-07-26T11:26:49.349Z,90
2017-07-26T11:27:49.356Z,95
2017-07-26T11:28:49.399Z,100
2017-07-26T11:29:49.415Z,95
2017-07-26T11:32:04.047Z,105
2017-07-26T11:32:49.474Z,105
2017-07-26T11:33:49.529Z,110
2017-07-26T11:34:49.526Z,105
2017-07-26T11:35:49.579Z,90
2017-07-26T11:36:49.590Z,70
2017-07-26T11:37:48.995Z,70
2017-07-26T11:39:04.248Z,60
2017-07-26T11:39:49.666Z,65
2017-07-26T11:40:49.685Z,65
2017-07-26T11:41:49.714Z,75
2017-07-26T11:42:49.403Z,80
2017-07-26T11:43:49.769Z,85
2017-07-26T11:44:49.792Z,85
2017-07-26T11:45:49.825Z,80
2017-07-26T11:46:49.810Z,95
2017-07-26T11:48:04.458Z,85
2017-07-26T11:48:49.874Z,80
2017-07-26T11:50:04.202Z,85
2017-07-26T11:50:49.935Z,80
2017-07-26T11:51:49.641Z,70
2017-07-26T11:52:49.668Z,70
2017-07-26T11:53:49.717Z,65
2017-07-26T11:55:04.615Z,60
2017-07-26T11:55:50.068Z,60
2017-07-26T11:56:50.061Z,65
2017-07-26T11:57:50.094Z,60
2017-07-26T11:58:50.102Z,60
2017-07-26T12:00:04.735Z,80
2017-07-26T12:01:04.773Z,85
2017-07-26T12:01:50.212Z,95
2017-07-26T12:03:04.800Z,100
2017-07-26T12:03:49.938Z,115
2017-07-26T12:04:50.276Z,80
2017-07-26T12:05:50.314Z,70
2017-07-26T12:06:50.012Z,75
2017-07-26T12:07:50.355Z,60
2017-07-26T12:08:50.044Z,60
2017-07-26T12:09:50.100Z,55
2017-07-26T12:11:05.032Z,55
2017-07-26T12:11:50.445Z,50
2017-07-26T12:12:50.471Z,55
2017-07-26T12:13:50.473Z,60
2017-07-26T12:14:50.520Z,55
2017-07-26T12:15:50.520Z,50
2017-07-26T12:16:50.250Z,55
2017-07-26T12:17:50.592Z,55
2017-07-26T12:18:50.615Z,45
2017-07-26T12:20:05.241Z,45
2017-07-26T12:20:50.359Z,40
2017-07-26T12:21:50.357Z,40
2017-07-26T12:22:50.400Z,40
2017-07-26T12:24:05.031Z,40
2017-07-26T12:24:50.451Z,35
2017-07-26T12:26:19.988Z,45
2017-07-26T12:27:05.416Z,50
2017-07-26T12:27:51.024Z,45
2017-07-26T12:28:50.871Z,45
2017-07-26T12:30:05.484Z,45
2017-07-26T12:30:50.903Z,45
2017-07-26T12:32:50.975Z,45
2017-07-26T12:33:50.969Z,40
2017-07-26T12:34:51.025Z,40
2017-07-26T12:36:05.637Z,40
2017-07-26T12:36:51.073Z,35
2017-07-26T12:37:50.752Z,30
2017-07-26T12:38:51.100Z,35
2017-07-26T12:40:05.422Z,35
2017-07-26T12:41:51.172Z,30
2017-07-26T12:42:51.262Z,30
2017-07-26T12:43:51.224Z,30
2017-07-26T12:44:50.932Z,30
2017-07-26T12:46:05.551Z,30
2017-07-26T12:46:51.292Z,35
2017-07-26T12:47:51.332Z,35
2017-07-26T12:48:51.345Z,35
2017-07-26T12:49:51.373Z,35
2017-07-26T12:50:51.387Z,35
2017-07-26T12:51:51.433Z,35
2017-07-26T12:53:06.038Z,40
2017-07-26T12:53:51.439Z,40
2017-07-26T12:55:06.104Z,45
2017-07-26T12:55:51.528Z,45
2017-07-26T12:56:51.534Z,40
2017-07-26T12:58:06.182Z,40
2017-07-26T12:58:51.587Z,40
2017-07-26T12:59:51.634Z,40
2017-07-26T13:00:51.634Z,45
2017-07-26T13:01:51.665Z,45
2017-07-26T13:02:51.662Z,45
2017-07-26T13:03:51.741Z,45
2017-07-26T13:04:51.420Z,45
2017-07-26T13:05:51.513Z,55
2017-07-26T13:06:51.798Z,55
2017-07-26T13:07:51.795Z,60
2017-07-26T13:09:06.422Z,60
2017-07-26T13:10:05.827Z,60
2017-07-26T13:11:51.893Z,70
2017-07-26T13:14:06.553Z,90
2017-07-26T13:14:51.983Z,85
2017-07-26T13:15:51.708Z,90
2017-07-26T13:17:06.628Z,90
2017-07-26T13:17:52.032Z,80
2017-07-26T13:18:52.086Z,75
2017-07-26T13:19:52.150Z,70
2017-07-26T13:20:52.133Z,70
2017-07-26T13:21:52.145Z,60
2017-07-26T13:23:06.772Z,55
2017-07-26T13:23:52.201Z,60
2017-07-26T13:24:52.230Z,60
2017-07-26T13:25:52.253Z,60
2017-07-26T13:26:52.267Z,50
2017-07-26T13:27:52.268Z,45
2017-07-26T13:29:06.921Z,50
2017-07-26T13:30:06.935Z,50
2017-07-26T13:31:06.662Z,50
2017-07-26T13:32:07.010Z,50
2017-07-26T13:33:06.989Z,45
2017-07-26T13:33:52.453Z,50
2017-07-26T13:34:52.450Z,50
2017-07-26T13:35:52.503Z,50
2017-07-26T13:36:52.497Z,50
2017-07-26T13:37:52.555Z,55
2017-07-26T13:38:52.578Z,60
2017-07-26T13:39:52.571Z,60
2017-07-26T13:41:07.241Z,50
2017-07-26T13:43:52.695Z,45
2017-07-26T13:44:52.375Z,50
2017-07-26T13:46:06.401Z,45
2017-07-26T13:47:52.449Z,50
2017-07-26T13:50:07.432Z,45
2017-07-26T13:50:52.861Z,45
2017-07-26T13:51:52.863Z,55
2017-07-26T13:52:52.917Z,50
2017-07-26T13:55:07.556Z,50
2017-07-26T13:55:52.948Z,55
2017-07-26T13:56:52.696Z,55
2017-07-26T13:57:52.999Z,55
2017-07-26T13:58:53.044Z,50
2017-07-26T13:59:53.067Z,50
2017-07-26T14:01:07.684Z,50
2017-07-26T14:01:53.121Z,55
2017-07-26T14:02:53.129Z,55
2017-07-26T14:04:07.777Z,50
2017-07-26T14:04:53.190Z,50
2017-07-26T14:05:53.234Z,45
2017-07-26T14:07:52.948Z,50
2017-07-26T14:09:07.877Z,40
2017-07-26T14:09:53.302Z,50
2017-07-26T14:11:07.936Z,50
2017-07-26T14:12:07.971Z,55
2017-07-26T14:13:07.998Z,45
2017-07-26T14:13:53.106Z,40
2017-07-26T14:14:53.448Z,45
2017-07-26T14:16:07.733Z,40
2017-07-26T14:17:08.078Z,45
2017-07-26T14:18:08.108Z,40
2017-07-26T14:18:53.225Z,40
2017-07-26T14:19:53.261Z,40
2017-07-26T14:20:53.591Z,40
2017-07-26T14:21:53.604Z,40
2017-07-26T14:22:53.335Z,35
2017-07-26T14:23:53.663Z,40
2017-07-26T14:24:53.349Z,45
2017-07-26T14:25:53.696Z,40
2017-07-26T14:26:53.418Z,35
2017-07-26T14:27:53.760Z,35
2017-07-26T14:28:53.132Z,40
2017-07-26T14:30:08.088Z,35
2017-07-26T14:33:08.161Z,30
2017-07-26T14:33:53.551Z,30
2017-07-26T14:34:53.924Z,35
2017-07-26T14:36:53.354Z,45
2017-07-26T14:37:53.668Z,40
2017-07-26T14:38:53.710Z,50
2017-07-26T14:39:53.708Z,50
2017-07-26T14:40:53.763Z,60
2017-07-26T14:41:53.775Z,60
2017-07-26T14:43:08.078Z,65
2017-07-26T14:44:08.735Z,65
2017-07-26T14:44:54.161Z,60
2017-07-26T14:45:54.189Z,60
2017-07-26T14:47:08.487Z,60
2017-07-26T14:47:54.236Z,55
2017-07-26T14:49:08.853Z,50
2017-07-26T14:49:54.282Z,45
2017-07-26T14:50:54.281Z,40
2017-07-26T14:52:08.933Z,40
2017-07-26T14:53:08.959Z,35
2017-07-26T14:54:08.984Z,35
2017-07-26T14:55:09.015Z,30
2017-07-26T14:55:54.419Z,30
2017-07-26T14:56:54.149Z,30
2017-07-26T14:57:54.450Z,30
2017-07-26T14:58:53.888Z,25
2017-07-26T14:59:53.894Z,30
2017-07-26T15:00:54.552Z,30
2017-07-26T15:01:54.577Z,25
2017-07-26T15:02:54.595Z,30
2017-07-26T15:03:54.622Z,25
2017-07-26T15:05:09.236Z,25
2017-07-26T15:05:54.657Z,30
2017-07-26T15:07:09.277Z,35
2017-07-26T15:07:54.411Z,35
2017-07-26T15:08:54.747Z,35
2017-07-26T15:09:54.831Z,35
2017-07-26T15:10:54.788Z,30
2017-07-26T15:12:09.410Z,30
2017-07-26T15:12:54.511Z,35
2017-07-26T15:13:54.847Z,35
2017-07-26T15:14:54.572Z,35
2017-07-26T15:15:54.927Z,40
2017-07-26T15:16:54.622Z,45
2017-07-26T15:18:09.563Z,45
2017-07-26T15:18:54.959Z,40
2017-07-26T15:19:55.015Z,35
2017-07-26T15:21:24.214Z,35
2017-07-26T15:21:55.027Z,35